Time;durP1;ratioP1;P1;durP2;ratioP2;P2;SDS_P1;SDS_P2;PMS_P1;PMS_P2;Temp;Humidity;BMP_temperature;BMP_pressure;BME280_temperature;BME280_humidity;BME280_pressure;Samples;Min_cycle;Max_cycle;Signal;HPM_P1;HPM_P2
2022/07/20 00:01:04;;;;;;;6.55;4.78;;;22.40;48.50;;;;;;5056519;28;20383;-62
2022/07/20 00:03:30;;;;;;;7.15;4.97;;;22.30;48.70;;;;;;5056303;28;20045;-63
2022/07/20 00:05:56;;;;;;;13.82;5.30;;;22.30;48.90;;;;;;5054007;28;20454;-62
2022/07/20 00:11:19;;;;;;;7.13;5.20;;;22.10;49.30;;;;;;5054424;28;20407;-63
2022/07/20 00:13:58;;;;;;;11.10;5.70;;;22.00;49.30;;;;;;5054955;28;20072;-63
2022/07/20 00:16:26;;;;;;;7.63;5.63;;;22.00;49.70;;;;;;5056687;28;20115;-62
2022/07/20 00:18:51;;;;;;;6.25;5.22;;;21.90;50.00;;;;;;5056044;28;20029;-65
2022/07/20 00:21:17;;;;;;;7.50;5.10;;;21.90;50.00;;;;;;5056748;28;22182;-62
2022/07/20 00:23:43;;;;;;;8.48;5.38;;;21.80;50.20;;;;;;5055871;28;20067;-60
2022/07/20 00:26:09;;;;;;;9.80;5.60;;;21.80;50.40;;;;;;5055848;28;20028;-64
2022/07/20 00:28:35;;;;;;;11.95;5.60;;;21.70;50.50;;;;;;5055822;28;20041;-64
2022/07/20 00:31:01;;;;;;;6.63;5.40;;;21.60;50.60;;;;;;5056017;28;20040;-65
2022/07/20 00:33:26;;;;;;;5.82;4.97;;;21.60;50.60;;;;;;5055475;28;20059;-60
2022/07/20 00:35:52;;;;;;;7.10;5.53;;;21.50;50.80;;;;;;5054666;28;20061;-64
2022/07/20 00:38:18;;;;;;;8.25;5.45;;;21.50;51.10;;;;;;5055032;28;20078;-63
2022/07/20 00:40:44;;;;;;;8.15;5.70;;;21.40;51.30;;;;;;5056830;28;20626;-64
2022/07/20 00:43:09;;;;;;;6.95;5.25;;;21.30;51.50;;;;;;5053692;28;20160;-64
2022/07/20 00:45:35;;;;;;;8.98;5.43;;;21.30;51.70;;;;;;5056436;28;20119;-60
2022/07/20 00:48:01;;;;;;;6.38;5.18;;;21.20;51.80;;;;;;5055845;28;20097;-64
2022/07/20 00:50:27;;;;;;;7.75;5.68;;;21.20;51.90;;;;;;5054707;28;20048;-64
2022/07/20 00:52:52;;;;;;;11.10;5.30;;;21.20;51.90;;;;;;5054513;28;20032;-65
2022/07/20 00:55:18;;;;;;;8.20;5.40;;;21.20;52.10;;;;;;5056058;28;20037;-62
2022/07/20 00:57:44;;;;;;;7.00;5.10;;;21.20;52.10;;;;;;5055580;28;20049;-63
2022/07/20 01:00:11;;;;;;;6.80;5.25;;;21.20;52.00;;;;;;5055384;28;20032;-60
2022/07/20 01:02:38;;;;;;;10.05;5.45;;;21.20;52.10;;;;;;5059224;28;20033;-64
2022/07/20 01:05:05;;;;;;;6.53;5.13;;;21.20;52.00;;;;;;5053264;28;20028;-63
2022/07/20 01:07:31;;;;;;;6.75;5.53;;;21.20;52.30;;;;;;5054655;28;20594;-63
2022/07/20 01:09:56;;;;;;;6.57;5.22;;;21.20;52.40;;;;;;5058549;28;20524;-64
2022/07/20 01:12:22;;;;;;;8.68;5.28;;;21.20;52.30;;;;;;5054143;28;20072;-62
2022/07/20 01:14:53;;;;;;;7.90;5.60;;;21.10;52.40;;;;;;5054879;28;20048;-64
2022/07/20 01:17:19;;;;;;;8.30;5.72;;;21.00;52.90;;;;;;5053969;28;20041;-66
2022/07/20 01:19:44;;;;;;;8.60;5.95;;;21.00;52.60;;;;;;5055098;28;20044;-63
2022/07/20 01:22:10;;;;;;;9.75;5.43;;;20.90;52.80;;;;;;5053958;28;20523;-65
2022/07/20 01:24:36;;;;;;;7.53;5.18;;;20.80;52.90;;;;;;5053540;28;20555;-64
2022/07/20 01:27:04;;;;;;;7.28;5.75;;;20.70;53.00;;;;;;5055347;28;20033;-64
2022/07/20 01:29:30;;;;;;;7.68;5.68;;;20.60;53.40;;;;;;5057613;28;20420;-65
2022/07/20 01:31:55;;;;;;;9.23;5.68;;;20.50;53.40;;;;;;5055411;28;20036;-66
2022/07/20 01:34:21;;;;;;;8.02;5.50;;;20.50;53.70;;;;;;5054541;28;20159;-63
2022/07/20 01:36:47;;;;;;;7.78;5.03;;;20.30;54.00;;;;;;5055292;28;20480;-63
2022/07/20 01:39:13;;;;;;;9.63;5.43;;;20.20;54.20;;;;;;5054088;28;20033;-62
2022/07/20 01:41:38;;;;;;;9.77;5.05;;;20.20;54.50;;;;;;5055579;28;20509;-64
2022/07/20 01:44:04;;;;;;;7.32;5.35;;;20.10;55.00;;;;;;5055400;28;20097;-63
2022/07/20 01:46:30;;;;;;;6.00;5.40;;;20.10;55.10;;;;;;5052954;28;20058;-66
2022/07/20 01:48:55;;;;;;;9.35;5.28;;;20.10;55.20;;;;;;5054637;28;20063;-64
2022/07/20 01:51:21;;;;;;;7.03;5.38;;;20.10;55.30;;;;;;5050959;28;20047;-63
2022/07/20 01:53:46;;;;;;;7.20;5.28;;;20.00;55.30;;;;;;5054993;28;20036;-63
2022/07/20 01:56:12;;;;;;;8.85;6.00;;;20.00;55.50;;;;;;5053207;28;20237;-65
2022/07/20 01:58:38;;;;;;;9.93;5.70;;;19.90;55.50;;;;;;5055408;28;20033;-62
2022/07/20 02:01:03;;;;;;;7.18;5.65;;;19.90;55.60;;;;;;5053885;28;20040;-63
2022/07/20 02:03:29;;;;;;;6.50;5.35;;;19.90;55.70;;;;;;5054944;28;20043;-62
2022/07/20 02:05:55;;;;;;;7.65;5.93;;;19.80;55.70;;;;;;5053408;28;20091;-62
2022/07/20 02:08:25;;;;;;;7.18;5.40;;;19.80;55.80;;;;;;5052226;28;20039;-63
2022/07/20 02:10:53;;;;;;;6.30;5.05;;;19.80;55.80;;;;;;5050862;28;20625;-63
2022/07/20 02:13:19;;;;;;;7.50;5.38;;;19.80;55.70;;;;;;5056024;28;20116;-63
2022/07/20 02:18:28;;;;;;;7.32;5.20;;;19.80;55.60;;;;;;5054694;28;20043;-64
2022/07/20 02:20:54;;;;;;;8.50;5.47;;;19.70;55.50;;;;;;5055238;28;20569;-64
2022/07/20 02:23:20;;;;;;;6.10;5.32;;;19.70;55.60;;;;;;5058479;28;20127;-62
2022/07/20 02:25:45;;;;;;;7.47;5.80;;;19.70;55.70;;;;;;5052052;28;20158;-61
2022/07/20 02:28:11;;;;;;;6.72;5.68;;;19.70;55.70;;;;;;5055531;28;20037;-62
2022/07/20 02:30:37;;;;;;;7.18;5.25;;;19.70;55.60;;;;;;5053156;28;20033;-63
2022/07/20 02:33:03;;;;;;;6.60;5.25;;;19.70;55.70;;;;;;5055035;28;20463;-62
2022/07/20 02:35:29;;;;;;;9.48;5.72;;;19.60;55.70;;;;;;5051472;28;20329;-62
2022/07/20 02:37:55;;;;;;;7.60;5.60;;;19.60;55.80;;;;;;5052988;28;20025;-62
2022/07/20 02:40:20;;;;;;;8.02;5.32;;;19.60;55.90;;;;;;5050781;28;20044;-62
2022/07/20 02:42:46;;;;;;;7.20;5.00;;;19.50;55.80;;;;;;5053142;28;20135;-62
2022/07/20 02:45:11;;;;;;;6.07;5.05;;;19.50;55.90;;;;;;5053923;28;20104;-63
2022/07/20 02:47:45;;;;;;;7.65;5.88;;;19.40;56.00;;;;;;5055605;28;20561;-62
2022/07/20 02:50:11;;;;;;;6.78;5.60;;;19.30;56.60;;;;;;5052690;28;20051;-63
2022/07/20 02:52:39;;;;;;;7.80;5.60;;;19.30;56.30;;;;;;5052017;28;20147;-62
2022/07/20 02:55:05;;;;;;;6.25;5.15;;;19.20;56.60;;;;;;5053727;28;20039;-62
2022/07/20 02:57:31;;;;;;;8.20;5.10;;;19.10;56.70;;;;;;5051498;28;20036;-62
2022/07/20 02:59:56;;;;;;;7.03;5.30;;;19.10;57.10;;;;;;5054404;28;20033;-63
2022/07/20 03:02:22;;;;;;;14.27;5.63;;;19.00;57.50;;;;;;5052498;28;20041;-66
2022/07/20 03:04:48;;;;;;;6.90;5.70;;;19.00;57.80;;;;;;5051817;28;20485;-62
2022/07/20 03:07:13;;;;;;;6.35;5.15;;;18.90;58.00;;;;;;5052142;28;20123;-62
2022/07/20 03:09:39;;;;;;;9.45;5.50;;;18.90;58.00;;;;;;5051455;28;20393;-63
2022/07/20 03:12:05;;;;;;;6.45;5.30;;;18.80;58.20;;;;;;5052548;28;20051;-63
2022/07/20 03:14:30;;;;;;;6.40;5.35;;;18.80;58.20;;;;;;5052788;28;20032;-62
2022/07/20 03:16:56;;;;;;;13.95;5.60;;;18.70;58.40;;;;;;5053915;28;20045;-62
2022/07/20 03:19:21;;;;;;;6.18;5.10;;;18.70;58.50;;;;;;5052969;28;20536;-61
2022/07/20 03:21:48;;;;;;;6.65;5.30;;;18.60;58.50;;;;;;5053060;28;20044;-63
2022/07/20 03:24:13;;;;;;;7.88;5.32;;;18.60;58.60;;;;;;5051762;28;20504;-64
2022/07/20 03:26:39;;;;;;;6.90;5.28;;;18.60;58.60;;;;;;5050910;28;20051;-61
2022/07/20 03:29:04;;;;;;;8.25;5.57;;;18.50;58.60;;;;;;5054239;28;20033;-63
2022/07/20 03:31:30;;;;;;;9.43;5.53;;;18.50;58.70;;;;;;5054892;28;20049;-62
2022/07/20 03:33:56;;;;;;;6.70;5.38;;;18.50;58.80;;;;;;5052011;28;20114;-60
2022/07/20 03:36:21;;;;;;;6.88;4.97;;;18.50;58.70;;;;;;5054405;28;20536;-61
2022/07/20 03:38:47;;;;;;;6.72;5.45;;;18.40;58.70;;;;;;5051587;28;20082;-62
2022/07/20 03:41:12;;;;;;;9.05;5.22;;;18.40;58.70;;;;;;5052168;28;20025;-65
2022/07/20 03:43:38;;;;;;;8.50;5.80;;;18.40;58.80;;;;;;5051822;28;20040;-63
2022/07/20 03:46:03;;;;;;;6.18;5.07;;;18.40;58.90;;;;;;5055927;28;20496;-62
2022/07/20 03:48:29;;;;;;;8.02;5.63;;;18.30;58.90;;;;;;5052150;28;20040;-61
2022/07/20 03:50:55;;;;;;;10.88;5.80;;;18.30;59.00;;;;;;5050819;28;20478;-62
2022/07/20 03:53:20;;;;;;;6.93;5.60;;;18.30;59.20;;;;;;5054092;28;20036;-63
2022/07/20 03:55:46;;;;;;;7.25;5.60;;;18.30;59.40;;;;;;5052539;28;20132;-61
2022/07/20 03:58:11;;;;;;;6.97;5.10;;;18.30;59.60;;;;;;5051819;28;20036;-62
2022/07/20 04:00:37;;;;;;;9.27;5.45;;;18.30;59.70;;;;;;5051574;28;20040;-63
2022/07/20 04:03:03;;;;;;;6.32;5.60;;;18.20;59.80;;;;;;5052747;28;20166;-63
2022/07/20 04:05:28;;;;;;;8.32;5.40;;;18.20;59.70;;;;;;5052255;28;20124;-59
2022/07/20 04:07:54;;;;;;;7.93;5.40;;;18.30;59.90;;;;;;5053226;28;20036;-62
2022/07/20 04:10:19;;;;;;;8.40;5.35;;;18.30;59.90;;;;;;5053252;28;20033;-65
2022/07/20 04:12:45;;;;;;;7.93;5.28;;;18.30;60.00;;;;;;5049857;28;20048;-62
2022/07/20 04:15:11;;;;;;;6.35;5.10;;;18.30;60.10;;;;;;5052634;28;20515;-62
2022/07/20 04:17:39;;;;;;;7.32;5.25;;;18.30;59.90;;;;;;5052168;28;20041;-63
2022/07/20 04:20:05;;;;;;;10.27;5.72;;;18.40;60.10;;;;;;5053271;28;20175;-61
2022/07/20 04:22:31;;;;;;;8.15;5.30;;;18.40;59.70;;;;;;5050718;28;20037;-64
2022/07/20 04:24:57;;;;;;;7.50;5.72;;;18.40;59.70;;;;;;5051588;28;20025;-62
2022/07/20 04:27:22;;;;;;;6.82;5.40;;;18.50;59.70;;;;;;5051774;28;20036;-63
2022/07/20 04:29:48;;;;;;;8.60;5.40;;;18.50;59.80;;;;;;5051967;28;20108;-63
2022/07/20 04:32:14;;;;;;;6.82;5.35;;;18.50;59.70;;;;;;5053656;28;20435;-62
2022/07/20 04:34:39;;;;;;;6.68;5.63;;;18.50;59.60;;;;;;5056633;28;20380;-60
2022/07/20 04:37:05;;;;;;;7.57;5.57;;;18.60;59.50;;;;;;5054948;28;20048;-61
2022/07/20 04:39:30;;;;;;;9.93;5.63;;;18.60;59.50;;;;;;5054991;28;20039;-63
2022/07/20 04:41:56;;;;;;;8.50;5.40;;;18.60;59.50;;;;;;5055986;28;20127;-62
2022/07/20 04:44:21;;;;;;;8.65;5.30;;;18.60;60.30;;;;;;5055780;28;20488;-63
2022/07/20 04:46:47;;;;;;;9.02;5.72;;;18.60;59.60;;;;;;5055564;28;20041;-63
2022/07/20 04:49:13;;;;;;;5.68;5.07;;;18.60;59.60;;;;;;5057562;28;20033;-63
2022/07/20 04:51:38;;;;;;;9.32;5.43;;;18.60;59.80;;;;;;5056027;28;20028;-62
2022/07/20 04:54:04;;;;;;;9.70;6.13;;;18.60;59.70;;;;;;5055683;28;20112;-63
2022/07/20 04:56:30;;;;;;;17.10;6.10;;;18.60;59.70;;;;;;5056956;28;20036;-63
2022/07/20 04:58:56;;;;;;;24.00;6.85;;;18.60;59.90;;;;;;5056036;28;20570;-63
2022/07/20 05:01:23;;;;;;;17.23;6.38;;;18.60;60.10;;;;;;5054285;28;20025;-64
2022/07/20 05:03:49;;;;;;;18.58;6.03;;;18.60;60.30;;;;;;5055914;28;20055;-63
2022/07/20 05:06:15;;;;;;;10.77;5.47;;;18.70;60.70;;;;;;5055236;28;20036;-63
2022/07/20 05:08:40;;;;;;;13.65;5.55;;;18.70;60.30;;;;;;5053766;28;20035;-64
2022/07/20 05:11:06;;;;;;;10.98;5.20;;;18.70;60.40;;;;;;5053601;28;20049;-63
2022/07/20 05:13:32;;;;;;;12.15;5.63;;;18.70;60.80;;;;;;5056317;28;20362;-60
2022/07/20 05:15:57;;;;;;;8.10;5.25;;;18.80;61.00;;;;;;5054765;28;20036;-63
2022/07/20 05:18:23;;;;;;;21.00;5.78;;;18.80;61.00;;;;;;5056278;28;20029;-63
2022/07/20 05:20:48;;;;;;;10.43;5.28;;;18.80;61.20;;;;;;5054761;28;20124;-60
2022/07/20 05:23:14;;;;;;;10.25;5.32;;;18.90;61.30;;;;;;5056977;28;20036;-63
2022/07/20 05:25:39;;;;;;;15.13;5.90;;;18.90;61.40;;;;;;5054970;28;20043;-63
2022/07/20 05:28:06;;;;;;;13.30;5.78;;;19.00;61.50;;;;;;5055922;28;20102;-62
2022/07/20 05:30:32;;;;;;;13.20;6.22;;;19.10;61.70;;;;;;5052830;28;20129;-63
2022/07/20 05:32:57;;;;;;;13.90;5.90;;;19.20;62.00;;;;;;5055111;28;20067;-63
2022/07/20 05:35:23;;;;;;;15.05;5.78;;;19.30;62.10;;;;;;5056771;28;20554;-63
2022/07/20 05:37:49;;;;;;;14.07;5.38;;;19.40;62.20;;;;;;5056589;28;20174;-63
2022/07/20 05:40:14;;;;;;;12.10;6.00;;;19.40;62.00;;;;;;5054613;28;20471;-61
2022/07/20 05:42:40;;;;;;;10.85;5.35;;;19.50;62.00;;;;;;5053716;28;20042;-61
2022/07/20 05:45:06;;;;;;;11.05;6.03;;;19.70;61.60;;;;;;5052545;28;20025;-63
2022/07/20 05:47:32;;;;;;;11.63;4.93;;;19.80;61.50;;;;;;5054245;28;20110;-63
2022/07/20 05:49:58;;;;;;;10.77;5.80;;;19.90;61.10;;;;;;5055154;28;20037;-63
2022/07/20 05:52:23;;;;;;;11.18;5.45;;;20.00;61.30;;;;;;5055231;28;20127;-64
2022/07/20 05:54:49;;;;;;;16.42;5.63;;;20.10;60.00;;;;;;5056893;28;20109;-62
2022/07/20 05:57:15;;;;;;;13.25;5.47;;;20.30;59.80;;;;;;5054054;28;20649;-62
2022/07/20 05:59:41;;;;;;;11.93;5.53;;;20.50;59.80;;;;;;5056094;28;20044;-61
2022/07/20 06:02:07;;;;;;;11.95;5.53;;;20.60;59.90;;;;;;5053610;28;20137;-62
2022/07/20 06:04:33;;;;;;;8.48;5.55;;;20.70;59.70;;;;;;5055217;28;20492;-62
2022/07/20 06:06:59;;;;;;;11.43;5.10;;;20.90;59.70;;;;;;5057200;28;20029;-63
2022/07/20 06:09:24;;;;;;;9.25;4.95;;;21.00;59.40;;;;;;5053933;28;20795;-62
2022/07/20 06:11:50;;;;;;;7.35;4.55;;;21.20;59.30;;;;;;5050162;28;20067;-63
2022/07/20 06:14:15;;;;;;;8.90;5.18;;;21.30;59.00;;;;;;5056605;28;20120;-63
2022/07/20 06:16:41;;;;;;;6.32;4.63;;;21.50;58.80;;;;;;5056775;28;20083;-62
2022/07/20 06:19:07;;;;;;;8.07;4.50;;;21.60;57.70;;;;;;5057141;28;20109;-60
2022/07/20 06:21:32;;;;;;;7.53;4.57;;;21.70;57.10;;;;;;5054940;28;20029;-63
2022/07/20 06:23:58;;;;;;;7.00;4.63;;;21.90;57.00;;;;;;5054933;28;20044;-60
2022/07/20 06:26:23;;;;;;;8.07;4.88;;;22.00;56.80;;;;;;5054604;28;20545;-63
2022/07/20 06:28:49;;;;;;;7.10;4.80;;;22.10;56.30;;;;;;5054258;28;20041;-63
2022/07/20 06:31:15;;;;;;;6.35;4.70;;;22.20;55.50;;;;;;5056224;28;20134;-64
2022/07/20 06:33:40;;;;;;;6.38;4.70;;;22.30;55.20;;;;;;5057504;28;20169;-62
2022/07/20 06:36:06;;;;;;;4.95;4.00;;;22.40;54.80;;;;;;5057009;28;20029;-62
2022/07/20 06:38:33;;;;;;;7.57;4.22;;;22.60;54.70;;;;;;5055489;28;20036;-63
2022/07/20 06:40:59;;;;;;;6.57;4.40;;;22.70;54.80;;;;;;5055775;28;20032;-64
2022/07/20 06:43:24;;;;;;;11.27;4.78;;;22.80;54.80;;;;;;5054061;28;20509;-64
2022/07/20 06:45:50;;;;;;;8.23;4.68;;;22.90;54.40;;;;;;5052034;28;20051;-60
2022/07/20 06:48:16;;;;;;;5.90;4.43;;;23.00;54.40;;;;;;5052936;28;20033;-63
2022/07/20 06:50:42;;;;;;;8.70;4.35;;;23.10;54.30;;;;;;5054846;28;20044;-63
2022/07/20 06:53:08;;;;;;;10.70;4.45;;;23.20;54.00;;;;;;5052264;28;20033;-62
2022/07/20 06:55:33;;;;;;;9.90;4.20;;;23.30;53.90;;;;;;5054839;28;20045;-63
2022/07/20 06:57:59;;;;;;;11.15;4.32;;;23.40;53.40;;;;;;5053318;28;20515;-63
2022/07/20 07:00:25;;;;;;;13.70;4.20;;;23.40;52.90;;;;;;5054908;28;20662;-63
2022/07/20 07:02:50;;;;;;;5.68;3.78;;;23.60;52.70;;;;;;5054232;28;20645;-64
2022/07/20 07:05:16;;;;;;;6.68;4.22;;;23.60;52.30;;;;;;5054465;28;20112;-62
2022/07/20 07:07:42;;;;;;;5.13;3.53;;;23.80;52.10;;;;;;5055724;28;20508;-62
2022/07/20 07:10:07;;;;;;;6.63;3.90;;;23.90;52.10;;;;;;5053211;28;20040;-60
2022/07/20 07:12:33;;;;;;;4.90;3.53;;;24.00;51.80;;;;;;5053094;28;20039;-60
2022/07/20 07:14:59;;;;;;;8.18;4.10;;;24.10;51.50;;;;;;5055821;28;20025;-63
2022/07/20 07:17:24;;;;;;;6.57;3.67;;;24.10;51.40;;;;;;5053472;28;20120;-63
2022/07/20 07:19:50;;;;;;;7.75;3.47;;;24.30;51.30;;;;;;5053730;28;20025;-63
2022/07/20 07:22:15;;;;;;;14.18;4.00;;;24.40;51.10;;;;;;5054664;28;20036;-63
2022/07/20 07:24:41;;;;;;;7.15;4.00;;;24.40;51.00;;;;;;5053512;28;20583;-63
2022/07/20 07:27:06;;;;;;;5.47;3.67;;;24.60;51.10;;;;;;5052198;28;20036;-62
2022/07/20 07:29:32;;;;;;;9.85;3.80;;;24.70;51.20;;;;;;5049920;28;20029;-63
2022/07/20 07:31:58;;;;;;;7.93;4.07;;;24.80;51.00;;;;;;5055074;28;20029;-62
2022/07/20 07:34:28;;;;;;;5.35;3.90;;;24.90;51.00;;;;;;5053954;28;20029;-62
2022/07/20 07:36:54;;;;;;;7.10;3.70;;;25.00;51.00;;;;;;5056040;28;20401;-63
2022/07/20 07:39:20;;;;;;;7.28;4.03;;;25.10;51.10;;;;;;5057147;28;20124;-63
2022/07/20 07:41:45;;;;;;;11.45;3.60;;;25.20;51.10;;;;;;5056224;28;20119;-62
2022/07/20 07:44:11;;;;;;;7.25;4.05;;;25.30;50.90;;;;;;5053999;28;20033;-63
2022/07/20 07:46:37;;;;;;;9.18;3.85;;;25.40;51.00;;;;;;5053271;28;20880;-63
2022/07/20 07:49:03;;;;;;;8.30;4.32;;;25.50;50.80;;;;;;5039797;28;20044;-62
2022/07/20 07:51:29;;;;;;;7.75;3.78;;;25.70;50.90;;;;;;5046905;28;20036;-63
2022/07/20 07:53:55;;;;;;;6.97;3.85;;;25.80;50.80;;;;;;5049596;28;20087;-61
2022/07/20 07:56:20;;;;;;;6.18;4.13;;;25.90;50.70;;;;;;5052055;28;20643;-63
2022/07/20 07:58:46;;;;;;;7.15;4.20;;;26.00;50.50;;;;;;5050316;28;20488;-62
2022/07/20 08:01:11;;;;;;;7.47;3.88;;;26.10;50.50;;;;;;5050085;28;20107;-63
2022/07/20 08:03:37;;;;;;;7.82;4.38;;;26.20;50.40;;;;;;5047670;28;20383;-65
2022/07/20 08:06:04;;;;;;;18.67;4.47;;;26.40;50.40;;;;;;5054944;28;20039;-63
2022/07/20 08:08:30;;;;;;;7.28;4.10;;;26.50;50.10;;;;;;5056352;28;20029;-63
2022/07/20 08:10:56;;;;;;;8.40;4.28;;;26.60;50.10;;;;;;5056618;28;20489;-63
2022/07/20 08:13:22;;;;;;;6.32;3.88;;;26.70;49.70;;;;;;5057209;28;20043;-65
2022/07/20 08:15:48;;;;;;;5.93;4.10;;;26.90;49.70;;;;;;5054500;28;20088;-62
2022/07/20 08:18:13;;;;;;;6.68;4.25;;;27.10;49.50;;;;;;5059770;28;20037;-61
2022/07/20 08:20:39;;;;;;;6.80;3.90;;;27.20;49.20;;;;;;5057786;28;20036;-63
2022/07/20 08:23:05;;;;;;;8.93;4.10;;;27.40;49.10;;;;;;5057664;28;20646;-62
2022/07/20 08:25:30;;;;;;;10.90;4.30;;;27.50;48.90;;;;;;5055812;28;20442;-63
2022/07/20 08:28:12;;;;;;;9.82;4.13;;;27.70;48.70;;;;;;5057902;28;20035;-60
2022/07/20 08:30:40;;;;;;;8.07;4.35;;;27.80;48.00;;;;;;5056688;28;20037;-64
2022/07/20 08:33:06;;;;;;;6.47;4.10;;;28.00;48.20;;;;;;5054053;28;20098;-64
2022/07/20 08:35:32;;;;;;;4.57;4.00;;;28.20;47.90;;;;;;5054093;28;20248;-64
2022/07/20 08:37:58;;;;;;;7.18;4.10;;;28.30;47.80;;;;;;5053179;28;20036;-64
2022/07/20 08:40:24;;;;;;;8.45;4.32;;;28.40;47.70;;;;;;5055327;28;20037;-64
2022/07/20 08:42:50;;;;;;;6.30;4.22;;;28.60;46.80;;;;;;5055145;28;20068;-64
2022/07/20 08:45:15;;;;;;;4.43;3.70;;;28.80;46.30;;;;;;5052151;28;20033;-63
2022/07/20 08:47:42;;;;;;;5.28;3.90;;;29.00;45.90;;;;;;5056853;28;20490;-63
2022/07/20 08:50:08;;;;;;;6.70;4.22;;;29.10;45.60;;;;;;5055929;28;20033;-65
2022/07/20 08:52:34;;;;;;;9.27;4.15;;;29.30;45.40;;;;;;5055250;28;20089;-63
2022/07/20 08:55:00;;;;;;;7.18;4.25;;;29.40;45.10;;;;;;5055979;28;20037;-61
2022/07/20 08:57:26;;;;;;;6.97;4.13;;;29.60;45.10;;;;;;5052964;28;20082;-63
2022/07/20 08:59:51;;;;;;;6.38;3.95;;;29.80;45.00;;;;;;5053493;28;20032;-63
2022/07/20 09:02:17;;;;;;;4.97;4.10;;;29.90;44.80;;;;;;5052794;28;20035;-65
2022/07/20 09:04:59;;;;;;;6.32;4.18;;;30.10;44.30;;;;;;5054547;28;20470;-65
2022/07/20 09:07:37;;;;;;;9.38;4.60;;;30.30;43.60;;;;;;5052778;28;20020;-65
2022/07/20 09:10:05;;;;;;;7.78;4.57;;;30.40;43.20;;;;;;5055366;28;20434;-65
2022/07/20 09:12:31;;;;;;;5.45;4.28;;;30.50;43.80;;;;;;5053915;28;20041;-63
2022/07/20 09:14:56;;;;;;;8.23;4.32;;;30.60;44.00;;;;;;5055671;28;20035;-63
2022/07/20 09:17:25;;;;;;;7.32;3.85;;;30.70;43.70;;;;;;5053055;28;20527;-63
2022/07/20 09:19:54;;;;;;;4.82;4.43;;;30.80;43.60;;;;;;5056322;28;20450;-64
2022/07/20 09:22:37;;;;;;;8.43;4.75;;;31.00;43.40;;;;;;5056788;28;20591;-64
2022/07/20 09:25:15;;;;;;;14.25;4.63;;;31.10;43.00;;;;;;5056453;28;20115;-66
2022/07/20 09:27:42;;;;;;;7.40;4.40;;;31.20;43.00;;;;;;5056601;28;20032;-63
2022/07/20 09:30:13;;;;;;;5.65;4.30;;;31.40;43.30;;;;;;5058655;28;20067;-63
2022/07/20 09:33:08;;;;;;;6.00;4.20;;;31.50;42.40;;;;;;5053538;28;20029;-63
2022/07/20 09:35:35;;;;;;;6.82;4.13;;;31.60;41.90;;;;;;5047551;28;20075;-63
2022/07/20 09:38:03;;;;;;;5.95;4.30;;;31.80;42.20;;;;;;5059573;28;20665;-63
2022/07/20 09:40:42;;;;;;;9.32;4.30;;;31.90;41.40;;;;;;5058108;28;20036;-65
2022/07/20 09:43:23;;;;;;;5.82;3.95;;;32.00;41.20;;;;;;5058139;28;20129;-65
2022/07/20 09:45:49;;;;;;;7.13;4.32;;;32.10;41.20;;;;;;5057124;28;20037;-63
2022/07/20 09:48:15;;;;;;;7.32;4.47;;;32.20;40.70;;;;;;5058421;28;20054;-63
2022/07/20 09:50:43;;;;;;;5.80;4.30;;;32.40;41.00;;;;;;5053584;28;20039;-62
2022/07/20 09:53:10;;;;;;;4.85;3.63;;;32.50;40.50;;;;;;5056798;28;20168;-64
2022/07/20 09:55:38;;;;;;;5.28;3.85;;;32.60;39.50;;;;;;5057641;28;20044;-65
2022/07/20 09:58:05;;;;;;;5.75;3.58;;;32.70;39.50;;;;;;5057738;28;20029;-63
2022/07/20 10:00:32;;;;;;;6.05;3.88;;;32.80;39.40;;;;;;5054942;28;20433;-65
2022/07/20 10:02:59;;;;;;;7.10;4.30;;;32.90;38.80;;;;;;5057578;28;20040;-64
2022/07/20 10:05:29;;;;;;;5.38;3.50;;;33.00;38.70;;;;;;5056651;28;20040;-63
2022/07/20 10:07:55;;;;;;;7.07;3.60;;;33.20;38.00;;;;;;5055757;28;20087;-64
2022/07/20 10:10:20;;;;;;;4.10;3.47;;;33.30;37.20;;;;;;5054625;28;20405;-64
2022/07/20 10:12:46;;;;;;;4.03;3.45;;;33.30;36.80;;;;;;5056352;28;20430;-64
2022/07/20 10:15:15;;;;;;;3.67;3.20;;;33.30;36.70;;;;;;5054555;28;20577;-64
2022/07/20 10:17:43;;;;;;;8.65;3.42;;;33.50;36.80;;;;;;5057868;28;20452;-65
2022/07/20 10:20:33;;;;;;;6.22;3.38;;;33.50;36.60;;;;;;5056067;28;20033;-65
2022/07/20 10:23:24;;;;;;;8.60;3.72;;;33.60;36.70;;;;;;5056543;28;20532;-62
2022/07/20 10:25:50;;;;;;;7.57;3.40;;;33.70;36.20;;;;;;5056502;28;20049;-65
2022/07/20 10:28:26;;;;;;;4.35;3.40;;;33.80;37.00;;;;;;5057438;28;20075;-64
2022/07/20 10:30:57;;;;;;;3.47;3.17;;;33.90;36.00;;;;;;5055408;28;20033;-63
2022/07/20 10:33:24;;;;;;;6.85;3.22;;;34.00;35.40;;;;;;5057341;28;20124;-64
2022/07/20 10:35:51;;;;;;;3.20;2.90;;;34.10;35.10;;;;;;5055953;28;20040;-64
2022/07/20 10:38:21;;;;;;;4.40;2.92;;;34.20;35.00;;;;;;5056454;28;20044;-64
2022/07/20 10:41:36;;;;;;;5.18;3.10;;;34.30;34.60;;;;;;5055410;28;20043;-64
2022/07/20 10:44:22;;;;;;;6.07;3.30;;;34.40;34.00;;;;;;5053388;28;20592;-63
2022/07/20 10:46:49;;;;;;;3.58;2.92;;;34.50;34.10;;;;;;5043863;28;20074;-64
2022/07/20 10:49:15;;;;;;;4.50;2.85;;;34.60;34.20;;;;;;5056471;28;20036;-63
2022/07/20 10:51:41;;;;;;;5.05;3.05;;;34.70;34.10;;;;;;5057266;28;20036;-64
2022/07/20 10:54:31;;;;;;;3.10;2.80;;;34.70;33.70;;;;;;5055424;28;20033;-65
2022/07/20 10:57:01;;;;;;;4.45;3.17;;;34.80;32.90;;;;;;5055751;28;20055;-62
2022/07/20 10:59:27;;;;;;;3.15;2.88;;;34.90;32.40;;;;;;5055948;28;20037;-63
2022/07/20 11:01:54;;;;;;;6.65;2.90;;;34.90;32.60;;;;;;5056564;28;20036;-64
2022/07/20 11:04:23;;;;;;;4.22;2.80;;;34.90;32.10;;;;;;5056123;28;20058;-63
2022/07/20 11:06:49;;;;;;;2.90;2.58;;;34.90;32.50;;;;;;5053952;28;20388;-63
2022/07/20 11:09:15;;;;;;;3.67;2.70;;;35.00;32.40;;;;;;5056854;28;20482;-64
2022/07/20 11:11:42;;;;;;;3.35;2.70;;;35.00;32.00;;;;;;5055173;28;20040;-62
2022/07/20 11:14:10;;;;;;;3.72;2.70;;;35.10;31.70;;;;;;5057490;28;20060;-64
2022/07/20 11:16:37;;;;;;;3.53;2.92;;;35.20;31.30;;;;;;5054394;28;20037;-64
2022/07/20 11:19:04;;;;;;;3.33;2.50;;;35.20;31.40;;;;;;5055674;28;20033;-65
2022/07/20 11:21:41;;;;;;;5.60;3.00;;;35.30;31.60;;;;;;5055586;28;20029;-62
2022/07/20 11:24:28;;;;;;;5.57;3.10;;;35.40;31.10;;;;;;5054437;28;20131;-66
2022/07/20 11:26:54;;;;;;;3.30;3.00;;;35.40;31.50;;;;;;5055792;28;20036;-64
2022/07/20 11:29:21;;;;;;;3.50;2.80;;;35.50;31.80;;;;;;5056084;28;20041;-66
2022/07/20 11:31:46;;;;;;;3.35;2.78;;;35.50;31.10;;;;;;5056280;28;20032;-64
2022/07/20 11:34:14;;;;;;;3.92;2.50;;;35.60;31.00;;;;;;5056852;28;20037;-65
2022/07/20 11:36:39;;;;;;;2.35;1.67;;;35.60;30.00;;;;;;5054021;28;20048;-67
2022/07/20 11:39:07;;;;;;;2.72;2.17;;;35.60;29.20;;;;;;5055506;28;20303;-62
2022/07/20 11:41:39;;;;;;;3.65;2.38;;;35.70;29.20;;;;;;5055780;28;20069;-63
2022/07/20 11:44:07;;;;;;;3.63;2.17;;;35.70;29.00;;;;;;5059561;28;20311;-64
2022/07/20 11:46:41;;;;;;;3.70;2.40;;;35.80;29.10;;;;;;5059113;28;20039;-63
2022/07/20 11:49:08;;;;;;;2.88;2.60;;;35.90;28.50;;;;;;5058989;28;20036;-65
2022/07/20 11:51:36;;;;;;;5.25;2.28;;;35.80;28.70;;;;;;5058254;28;20633;-64
2022/07/20 11:54:04;;;;;;;5.15;2.40;;;35.90;28.60;;;;;;5060096;28;20048;-65
2022/07/20 11:56:31;;;;;;;5.30;2.88;;;35.90;28.70;;;;;;5057237;28;20037;-64
2022/07/20 11:58:59;;;;;;;4.70;2.45;;;35.90;29.00;;;;;;5057997;28;20040;-65
2022/07/20 12:01:26;;;;;;;5.88;2.22;;;36.00;29.00;;;;;;5058645;28;20504;-65
2022/07/20 12:04:06;;;;;;;4.20;2.63;;;36.10;28.30;;;;;;5059805;28;20064;-63
2022/07/20 12:06:39;;;;;;;3.75;2.47;;;36.00;28.20;;;;;;5057632;28;20043;-63
2022/07/20 12:09:18;;;;;;;4.47;2.55;;;36.10;28.40;;;;;;5059057;28;20612;-64
2022/07/20 12:12:08;;;;;;;4.60;2.80;;;36.10;28.40;;;;;;5055944;28;20041;-65
2022/07/20 12:14:34;;;;;;;3.45;2.53;;;36.20;28.60;;;;;;5059000;28;20048;-64
2022/07/20 12:17:13;;;;;;;3.42;2.70;;;36.10;28.70;;;;;;5059526;28;20037;-65
2022/07/20 12:19:41;;;;;;;5.60;2.78;;;36.20;28.80;;;;;;5059642;28;20034;-65
2022/07/20 12:22:14;;;;;;;2.83;2.55;;;36.20;28.70;;;;;;5061026;28;20094;-65
2022/07/20 12:24:57;;;;;;;3.63;2.33;;;36.20;28.10;;;;;;5058247;28;20028;-65
2022/07/20 12:27:26;;;;;;;5.28;2.40;;;36.20;28.50;;;;;;5059189;28;20032;-64
2022/07/20 12:29:52;;;;;;;3.00;2.70;;;36.20;28.30;;;;;;5059065;28;20041;-65
2022/07/20 12:32:31;;;;;;;3.30;3.00;;;36.30;28.20;;;;;;5059942;28;20106;-65
2022/07/20 12:34:58;;;;;;;3.22;2.50;;;36.30;27.10;;;;;;5058939;28;20419;-64
2022/07/20 12:37:24;;;;;;;2.80;2.60;;;36.30;28.10;;;;;;5060523;28;20435;-65
2022/07/20 12:39:54;;;;;;;5.25;2.50;;;36.30;27.70;;;;;;5057408;28;20040;-65
2022/07/20 12:42:23;;;;;;;2.50;2.30;;;36.30;28.60;;;;;;5057743;28;20041;-66
2022/07/20 12:44:58;;;;;;;2.67;2.30;;;36.30;28.30;;;;;;5058303;28;20111;-64
2022/07/20 12:47:24;;;;;;;9.13;2.95;;;36.30;28.50;;;;;;5060006;28;20040;-61
2022/07/20 12:49:50;;;;;;;3.75;2.60;;;36.30;28.30;;;;;;5058156;28;20029;-64
2022/07/20 12:52:15;;;;;;;3.20;2.55;;;36.30;29.00;;;;;;5058863;28;20041;-65